Airfield :
LOGIN :

Register | Disclaimer

   EN    FR    IT 

 










Legend :    VFR   Marginal VFR   IFR   Intensive IFR   Very Intensive IFR
Visi :
Ceiling :
>= 8 km
>= 3000ft
5 to 8 km
1000 to 3000 ft
1500m to 5 km
500 to 1000 ft
800 to 1500m
200 to 500 ft
< 800m
< 200 ft
Symbols :   Thunderstorms  Fog  Heavy snow  Heavy precipitations  Wind > 20 kt
SIGMETs :     Misc.  Thunderstorms  Icing  Turbulence  Mountain Waves  Volcanic Ashes






- Airport Elevation : 1197 ft
- IATA code : SPM


ETAD - Spangdahlem Ab

CURRENT METAR :
  • 040856Z 32004KT 9999 SCT017 SCT026 BKN042 BKN080 BKN170 BKN210 15/12 A2944 RMK AO2A SLP954 T01510115 58003 $

EXPIRED METARs :
  • 040830Z 30005KT 9999 SCT014 BKN020 OVC025 15/12 A2944 RMK CIG 012 RWY05 SLP954 $
  • 040756Z 30003KT 9999 FEW011 FEW030 OVC046 15/13 A2944 RMK AO2A SLP951 T01460125 $
  • 040733Z 29004KT 9999 SCT010 SCT016 BKN021 OVC040 15/13 A2944 RMK CIG 016V021 CIG 008 RWY05 SLP951 $
  • 040726Z 26006KT 9999 BKN010 BKN015 BKN020 OVC040 15/13 A2945 RMK AO2A CIG 006 RWY05 SLP955 $
  • 040711Z 28003KT 9999 BKN009 BKN013 OVC047 15/13 A2945 RMK AO2A CIG 006 RWY05 SLP955 $
  • 040656Z 26004KT 9999 SCT009 BKN047 15/14 A2944 RMK AO2A SLP951 T01470139 $
  • 040625Z AUTO 00000KT 9999 FEW008 SCT080 BKN110 14/13 A2945 RMK AO2 SLP955 $

TAF TAF ETAD
Valid from the 04 at 04:00 until the 05 at 10:00 UTC


040400Z 0404/0510 VRB04KT 8000 -SHRA FEW010 OVC030 QNH2943INS
BECMG 0407/0408 31008KT 8000 -SHRA SCT010 OVC025 QNH2940INS
TEMPO 0411/0415 33012G25KT 6000 -TSRA BKN020CB
BECMG 0417/0418 33010KT 8000 -SHRA BKN030 QNH2938INS
BECMG 0423/0424 30008KT 9999 NSW BKN020 BKN060 QNH2941INS TX18/0412Z TN08/0504Z



MET'MAP, your aeronautical weather chart ! - Copyright ORBIFLY December 2007 - Disclaimer

ORBIFLY MET'MAP TEAM :

Programming & Development : Alexandra Zaïnal
Concept & original design : Baudouin d'Aumeries
Assistance for programming : Marc-Olivier Méhu
Technical & hardware support : Manuel Goepfert

Contact : metmap@orbifly.com




SOURCES & CREDITS :

   NOAA